createdAt,value
2018-05-08T00:00:49.320Z,15.03
2018-05-08T00:01:49.906Z,15.42
2018-05-08T00:02:50.486Z,15.55
2018-05-08T00:03:51.061Z,15.62
2018-05-08T00:04:51.633Z,15.79
2018-05-08T00:05:52.211Z,15.49
2018-05-08T00:06:52.796Z,15.49
2018-05-08T00:07:53.367Z,15.44
2018-05-08T00:08:53.951Z,15.42
2018-05-08T00:09:54.522Z,15.11
2018-05-08T00:10:55.095Z,15.07
2018-05-08T00:11:55.681Z,14.94
2018-05-08T00:12:56.262Z,14.78
2018-05-08T00:13:56.838Z,14.48
2018-05-08T00:14:57.414Z,14.70
2018-05-08T00:15:57.988Z,14.88
2018-05-08T00:16:58.561Z,14.82
2018-05-08T00:17:59.132Z,15.29
2018-05-08T00:18:59.706Z,15.17
2018-05-08T00:20:00.283Z,14.96
2018-05-08T00:21:00.855Z,14.73
2018-05-08T00:22:01.428Z,14.78
2018-05-08T00:23:02.049Z,14.65
2018-05-08T00:24:02.572Z,14.65
2018-05-08T00:25:03.145Z,14.69
2018-05-08T00:26:03.730Z,14.79
2018-05-08T00:27:04.303Z,14.92
2018-05-08T00:28:04.877Z,14.73
2018-05-08T00:29:05.450Z,14.72
2018-05-08T00:30:06.023Z,14.82
2018-05-08T00:31:06.596Z,14.85
2018-05-08T00:32:07.168Z,14.70
2018-05-08T00:33:07.741Z,14.78
2018-05-08T00:34:08.313Z,14.58
2018-05-08T00:35:08.887Z,14.60
2018-05-08T00:36:09.459Z,14.50
2018-05-08T00:37:10.106Z,14.63
2018-05-08T00:38:10.605Z,14.51
2018-05-08T00:39:11.178Z,14.44
2018-05-08T00:40:11.751Z,14.77
2018-05-08T00:41:12.329Z,14.63
2018-05-08T00:42:12.911Z,14.54
2018-05-08T00:43:13.496Z,14.59
2018-05-08T00:44:14.071Z,14.50
2018-05-08T00:45:14.642Z,14.44
2018-05-08T00:46:15.215Z,14.35
2018-05-08T00:47:15.800Z,14.32
2018-05-08T00:48:16.373Z,14.37
2018-05-08T00:49:16.946Z,14.32
2018-05-08T00:50:17.517Z,14.17
2018-05-08T00:51:18.093Z,14.40
2018-05-08T00:52:18.664Z,14.54
2018-05-08T00:53:19.239Z,14.59
2018-05-08T00:54:19.812Z,14.55
2018-05-08T00:55:20.396Z,14.30
2018-05-08T00:56:20.969Z,14.20
2018-05-08T00:57:21.541Z,14.25
2018-05-08T00:58:22.116Z,14.20
2018-05-08T00:59:22.688Z,14.72
2018-05-08T01:00:23.261Z,14.29
2018-05-08T01:01:23.834Z,14.36
2018-05-08T01:02:24.407Z,14.29
2018-05-08T01:03:24.991Z,14.23
2018-05-08T01:04:25.565Z,14.23
2018-05-08T01:05:26.137Z,14.45
2018-05-08T01:06:26.709Z,14.26
2018-05-08T01:07:27.282Z,14.25
2018-05-08T01:08:27.853Z,14.35
2018-05-08T01:09:28.428Z,14.23
2018-05-08T01:10:29.000Z,14.28
2018-05-08T01:11:29.576Z,14.36
2018-05-08T01:12:30.145Z,14.26
2018-05-08T01:13:30.722Z,14.37
2018-05-08T01:14:31.290Z,14.26
2018-05-08T01:15:31.863Z,14.33
2018-05-08T01:16:32.447Z,14.43
2018-05-08T01:17:33.019Z,14.62
2018-05-08T01:18:33.592Z,14.36
2018-05-08T01:19:34.177Z,14.28
2018-05-08T01:20:34.750Z,14.35
2018-05-08T01:21:35.324Z,14.82
2018-05-08T01:22:35.896Z,14.86
2018-05-08T01:23:36.471Z,14.66
2018-05-08T01:24:37.043Z,14.41
2018-05-08T01:25:37.615Z,14.23
2018-05-08T01:26:38.188Z,14.37
2018-05-08T01:28:54.225Z,13.99
2018-05-08T01:29:54.799Z,14.29
2018-05-08T01:30:55.371Z,14.22
2018-05-08T01:31:55.955Z,14.29
2018-05-08T01:32:56.528Z,14.11
2018-05-08T01:33:57.102Z,14.07
2018-05-08T01:34:57.678Z,13.77
2018-05-08T01:35:58.248Z,13.86
2018-05-08T01:36:58.820Z,13.74
2018-05-08T01:37:59.392Z,13.70
2018-05-08T01:38:59.967Z,14.07
2018-05-08T01:40:00.541Z,13.97
2018-05-08T01:41:01.116Z,14.32
2018-05-08T01:42:01.690Z,14.17
2018-05-08T01:43:02.262Z,13.86
2018-05-08T01:44:02.836Z,13.63
2018-05-08T01:45:03.414Z,13.44
2018-05-08T01:46:03.983Z,13.97
2018-05-08T01:47:04.556Z,13.65
2018-05-08T01:48:05.131Z,13.86
2018-05-08T01:49:05.709Z,14.08
2018-05-08T01:50:06.280Z,14.18
2018-05-08T01:51:06.854Z,14.26
2018-05-08T01:52:07.430Z,13.85
2018-05-08T01:53:08.000Z,13.70
2018-05-08T01:54:08.571Z,13.63
2018-05-08T01:55:09.155Z,13.75
2018-05-08T01:56:09.717Z,13.72
2018-05-08T01:57:10.339Z,13.71
2018-05-08T01:58:10.862Z,13.53
2018-05-08T01:59:11.436Z,13.39
2018-05-08T02:00:12.013Z,13.19
2018-05-08T02:01:12.585Z,13.44
2018-05-08T02:02:13.159Z,13.89
2018-05-08T02:03:13.733Z,14.11
2018-05-08T02:04:14.307Z,14.10
2018-05-08T02:05:14.876Z,13.77
2018-05-08T02:06:15.449Z,13.95
2018-05-08T02:07:16.022Z,13.93
2018-05-08T02:08:16.596Z,13.93
2018-05-08T02:09:17.171Z,13.72
2018-05-08T02:10:17.744Z,13.72
2018-05-08T02:11:18.320Z,13.93
2018-05-08T02:12:18.892Z,13.79
2018-05-08T02:13:19.466Z,13.54
2018-05-08T02:14:20.051Z,13.37
2018-05-08T02:15:20.622Z,13.71
2018-05-08T02:16:21.196Z,13.70
2018-05-08T02:17:21.773Z,13.67
2018-05-08T02:18:22.354Z,13.46
2018-05-08T02:19:22.928Z,13.68
2018-05-08T02:20:23.583Z,13.46
2018-05-08T02:21:24.075Z,13.33
2018-05-08T02:22:24.647Z,13.38
2018-05-08T02:23:25.221Z,13.53
2018-05-08T02:24:25.792Z,13.41
2018-05-08T02:25:26.365Z,13.47
2018-05-08T02:26:26.937Z,13.50
2018-05-08T02:27:27.511Z,13.46
2018-05-08T02:28:28.084Z,13.44
2018-05-08T02:29:28.658Z,13.39
2018-05-08T02:30:29.233Z,13.28
2018-05-08T02:31:29.807Z,13.38
2018-05-08T02:32:30.380Z,13.23
2018-05-08T02:33:30.951Z,13.31
2018-05-08T02:34:31.538Z,13.31
2018-05-08T02:35:32.114Z,13.28
2018-05-08T02:36:32.694Z,13.28
2018-05-08T02:37:33.277Z,13.50
2018-05-08T02:38:33.853Z,13.15
2018-05-08T02:39:34.439Z,13.16
2018-05-08T02:40:35.020Z,13.01
2018-05-08T02:41:35.596Z,13.30
2018-05-08T02:42:36.180Z,13.19
2018-05-08T02:43:36.749Z,13.23
2018-05-08T02:44:37.322Z,13.20
2018-05-08T02:45:37.895Z,13.09
2018-05-08T02:46:38.469Z,13.28
2018-05-08T02:47:39.053Z,13.08
2018-05-08T02:48:39.625Z,13.77
2018-05-08T02:49:40.198Z,13.67
2018-05-08T02:50:40.772Z,13.33
2018-05-08T02:51:41.347Z,12.90
2018-05-08T02:52:41.929Z,12.83
2018-05-08T02:53:42.496Z,12.83
2018-05-08T02:54:43.079Z,13.01
2018-05-08T02:55:43.652Z,13.03
2018-05-08T02:56:44.228Z,12.93
2018-05-08T02:57:44.798Z,13.22
2018-05-08T02:58:45.372Z,13.00
2018-05-08T02:59:45.943Z,12.91
2018-05-08T03:00:46.515Z,12.94
2018-05-08T03:01:47.088Z,12.94
2018-05-08T03:02:47.663Z,12.98
2018-05-08T03:03:48.239Z,13.13
2018-05-08T03:04:48.809Z,12.86
2018-05-08T03:05:49.381Z,12.75
2018-05-08T03:06:49.956Z,12.93
2018-05-08T03:07:50.534Z,12.90
2018-05-08T03:08:51.108Z,12.83
2018-05-08T03:09:51.681Z,12.91
2018-05-08T03:10:52.251Z,13.03
2018-05-08T03:11:52.827Z,12.95
2018-05-08T03:12:53.400Z,12.78
2018-05-08T03:13:53.983Z,12.87
2018-05-08T03:14:54.565Z,12.58
2018-05-08T03:15:55.129Z,12.55
2018-05-08T03:16:55.707Z,12.58
2018-05-08T03:17:56.275Z,12.68
2018-05-08T03:18:56.847Z,12.72
2018-05-08T03:19:57.427Z,12.97
2018-05-08T03:20:58.004Z,13.05
2018-05-08T03:21:58.577Z,12.93
2018-05-08T03:22:59.159Z,12.93
2018-05-08T03:23:59.735Z,12.82
2018-05-08T03:25:00.307Z,12.91
2018-05-08T03:26:00.890Z,12.91
2018-05-08T03:27:01.465Z,12.73
2018-05-08T03:28:02.048Z,13.08
2018-05-08T03:29:02.619Z,13.16
2018-05-08T03:30:03.293Z,13.42
2018-05-08T03:31:03.760Z,13.13
2018-05-08T03:32:04.345Z,13.01
2018-05-08T03:33:04.917Z,13.16
2018-05-08T03:34:05.488Z,13.11
2018-05-08T03:35:06.060Z,12.94
2018-05-08T03:36:06.632Z,13.15
2018-05-08T03:37:07.203Z,13.19
2018-05-08T03:38:07.775Z,12.87
2018-05-08T03:39:08.347Z,13.12
2018-05-08T03:40:08.922Z,13.20
2018-05-08T03:41:09.495Z,13.04
2018-05-08T03:42:10.070Z,12.67
2018-05-08T03:43:10.655Z,12.79
2018-05-08T03:44:11.228Z,12.90
2018-05-08T03:45:11.804Z,12.83
2018-05-08T03:46:12.377Z,12.67
2018-05-08T03:47:12.950Z,12.47
2018-05-08T03:48:13.522Z,12.67
2018-05-08T03:49:14.096Z,12.98
2018-05-08T03:50:14.671Z,12.73
2018-05-08T03:51:15.244Z,12.70
2018-05-08T03:52:15.820Z,12.53
2018-05-08T03:53:16.394Z,12.70
2018-05-08T03:54:16.966Z,12.85
2018-05-08T03:55:17.540Z,12.80
2018-05-08T03:56:18.113Z,12.91
2018-05-08T03:57:18.728Z,12.87
2018-05-08T03:58:19.259Z,13.05
2018-05-08T03:59:19.833Z,12.50
2018-05-08T04:00:20.407Z,12.65
2018-05-08T04:01:20.993Z,13.18
2018-05-08T04:02:21.566Z,12.94
2018-05-08T04:03:22.139Z,12.65
2018-05-08T04:04:22.711Z,13.03
2018-05-08T04:05:23.286Z,12.97
2018-05-08T04:06:23.856Z,12.76
2018-05-08T04:07:24.431Z,13.08
2018-05-08T04:08:25.058Z,13.27
2018-05-08T04:09:25.614Z,12.76
2018-05-08T04:10:26.149Z,12.76
2018-05-08T04:11:26.720Z,12.45
2018-05-08T04:12:27.293Z,12.65
2018-05-08T04:13:27.877Z,13.05
2018-05-08T04:14:28.452Z,12.78
2018-05-08T04:15:29.082Z,12.64
2018-05-08T04:16:29.608Z,12.57
2018-05-08T04:17:30.195Z,12.67
2018-05-08T04:18:30.773Z,12.94
2018-05-08T04:19:31.346Z,12.79
2018-05-08T04:20:31.918Z,12.90
2018-05-08T04:21:32.493Z,13.16
2018-05-08T04:22:33.067Z,13.23
2018-05-08T04:23:33.643Z,13.04
2018-05-08T04:24:34.222Z,13.03
2018-05-08T04:25:34.793Z,13.01
2018-05-08T04:26:35.367Z,12.90
2018-05-08T04:27:35.943Z,13.15
2018-05-08T04:28:36.518Z,13.08
2018-05-08T04:29:37.091Z,13.23
2018-05-08T04:30:37.666Z,13.05
2018-05-08T04:31:38.241Z,13.35
2018-05-08T04:32:38.814Z,13.27
2018-05-08T04:33:39.390Z,13.39
2018-05-08T04:34:39.963Z,13.16
2018-05-08T04:35:40.545Z,13.70
2018-05-08T04:36:41.143Z,13.89
2018-05-08T04:37:41.702Z,13.78
2018-05-08T04:38:42.278Z,13.63
2018-05-08T04:39:42.853Z,13.83
2018-05-08T04:40:43.427Z,13.37
2018-05-08T04:41:44.009Z,13.85
2018-05-08T04:42:44.576Z,14.23
2018-05-08T04:43:45.149Z,13.97
2018-05-08T04:44:45.725Z,13.72
2018-05-08T04:45:46.299Z,13.31
2018-05-08T04:46:46.876Z,13.13
2018-05-08T04:47:47.450Z,13.89
2018-05-08T04:48:48.029Z,13.90
2018-05-08T04:49:48.611Z,13.97
2018-05-08T04:50:49.198Z,14.18
2018-05-08T04:51:49.773Z,14.10
2018-05-08T04:52:50.360Z,14.32
2018-05-08T04:53:50.936Z,14.35
2018-05-08T04:54:51.522Z,14.37
2018-05-08T04:55:52.152Z,14.51
2018-05-08T04:56:52.673Z,14.59
2018-05-08T04:57:53.250Z,14.36
2018-05-08T04:58:53.837Z,14.15
2018-05-08T04:59:54.414Z,14.58
2018-05-08T05:00:54.991Z,14.69
2018-05-08T05:01:55.568Z,14.70
2018-05-08T05:02:56.142Z,14.66
2018-05-08T05:03:56.719Z,14.73
2018-05-08T05:04:57.295Z,14.86
2018-05-08T05:05:57.871Z,14.94
2018-05-08T05:06:58.530Z,15.02
2018-05-08T05:07:59.023Z,15.29
2018-05-08T05:08:59.599Z,15.27
2018-05-08T05:10:00.174Z,15.06
2018-05-08T05:11:00.786Z,14.94
2018-05-08T05:12:01.330Z,15.04
2018-05-08T05:13:01.916Z,15.03
2018-05-08T05:14:02.491Z,14.99
2018-05-08T05:15:03.070Z,15.18
2018-05-08T05:16:03.646Z,15.29
2018-05-08T05:17:04.222Z,15.43
2018-05-08T05:18:04.800Z,15.27
2018-05-08T05:19:05.387Z,15.33
2018-05-08T05:20:05.968Z,15.28
2018-05-08T05:21:06.540Z,15.46
2018-05-08T05:22:07.116Z,15.35
2018-05-08T05:23:07.697Z,15.77
2018-05-08T05:24:08.271Z,15.64
2018-05-08T05:25:08.860Z,15.57
2018-05-08T05:26:09.447Z,15.27
2018-05-08T05:27:10.024Z,15.51
2018-05-08T05:28:10.601Z,15.57
2018-05-08T05:29:11.177Z,15.64
2018-05-08T05:30:11.754Z,15.65
2018-05-08T05:31:12.337Z,15.77
2018-05-08T05:32:12.910Z,15.90
2018-05-08T05:33:13.486Z,16.10
2018-05-08T05:34:14.073Z,16.24
2018-05-08T05:35:14.654Z,16.16
2018-05-08T05:36:15.225Z,16.26
2018-05-08T05:37:15.804Z,16.20
2018-05-08T05:38:16.380Z,16.20
2018-05-08T05:39:16.957Z,16.21
2018-05-08T05:40:17.546Z,16.38
2018-05-08T05:41:18.127Z,16.01
2018-05-08T05:42:18.699Z,16.31
2018-05-08T05:43:19.278Z,16.35
2018-05-08T05:44:19.854Z,16.36
2018-05-08T05:45:20.432Z,16.49
2018-05-08T05:46:21.015Z,16.32
2018-05-08T05:47:21.588Z,16.28
2018-05-08T05:48:22.166Z,16.24
2018-05-08T05:49:22.744Z,16.56
2018-05-08T05:50:23.321Z,16.58
2018-05-08T05:51:23.899Z,16.50
2018-05-08T05:52:24.476Z,16.61
2018-05-08T05:53:25.172Z,16.68
2018-05-08T05:54:25.628Z,16.71
2018-05-08T05:55:26.206Z,16.66
2018-05-08T05:56:26.787Z,16.91
2018-05-08T05:57:27.361Z,16.96
2018-05-08T05:58:27.938Z,16.90
2018-05-08T05:59:28.517Z,17.02
2018-05-08T06:00:29.096Z,16.97
2018-05-08T06:01:29.673Z,17.15
2018-05-08T06:02:30.251Z,17.19
2018-05-08T06:03:30.828Z,17.04
2018-05-08T06:04:31.407Z,17.20
2018-05-08T06:05:31.984Z,17.24
2018-05-08T06:06:32.562Z,17.29
2018-05-08T06:07:33.142Z,17.41
2018-05-08T06:08:33.718Z,17.33
2018-05-08T06:09:34.299Z,17.46
2018-05-08T06:10:34.873Z,17.56
2018-05-08T06:11:35.452Z,17.76
2018-05-08T06:12:36.032Z,17.56
2018-05-08T06:13:36.608Z,17.70
2018-05-08T06:14:37.199Z,18.01
2018-05-08T06:15:37.775Z,17.87
2018-05-08T06:16:38.355Z,17.86
2018-05-08T06:17:38.948Z,-15.92
2018-05-08T06:18:39.524Z,-15.92
2018-05-08T06:19:40.103Z,-15.92
2018-05-08T06:20:40.684Z,-15.92
2018-05-08T06:21:41.258Z,-15.92
2018-05-08T06:22:41.838Z,-15.92
2018-05-08T06:23:42.417Z,-15.92
2018-05-08T06:24:43.006Z,-15.92
2018-05-08T06:25:43.584Z,-15.92
2018-05-08T06:26:44.161Z,-15.92
2018-05-08T06:27:44.742Z,-15.92
2018-05-08T06:28:45.322Z,-15.92
2018-05-08T06:29:45.904Z,-15.92
2018-05-08T06:30:46.477Z,-15.92
2018-05-08T06:31:47.060Z,-15.92
2018-05-08T06:32:47.637Z,-15.92
2018-05-08T06:33:48.215Z,-15.92
2018-05-08T06:34:48.793Z,-15.92
2018-05-08T06:35:49.382Z,-15.92
2018-05-08T06:36:49.961Z,-15.92
2018-05-08T06:37:50.541Z,-15.92
2018-05-08T06:38:51.119Z,-15.92
2018-05-08T06:39:51.697Z,-15.92
2018-05-08T06:40:52.280Z,-15.92
2018-05-08T06:41:52.855Z,-15.92
2018-05-08T06:42:53.436Z,-15.92
2018-05-08T06:43:54.024Z,-15.92
2018-05-08T06:44:54.602Z,-15.92
2018-05-08T06:45:55.182Z,-15.92
2018-05-08T06:46:55.760Z,-15.92
2018-05-08T06:47:56.339Z,-15.92
2018-05-08T06:48:56.923Z,-15.92
2018-05-08T06:49:57.498Z,-15.92
2018-05-08T06:50:58.077Z,-15.92
2018-05-08T06:51:58.658Z,-15.92
2018-05-08T06:52:59.236Z,-15.92
2018-05-08T06:53:59.813Z,-15.92
2018-05-08T06:55:00.408Z,-15.92
2018-05-08T06:56:00.983Z,-15.92
2018-05-08T06:57:01.562Z,-15.92
2018-05-08T06:58:02.141Z,-15.92
2018-05-08T06:59:02.723Z,-15.92
2018-05-08T07:00:03.301Z,-15.92
2018-05-08T07:01:03.877Z,-15.92
2018-05-08T07:02:04.457Z,-15.92
2018-05-08T07:03:05.038Z,-15.92
2018-05-08T07:04:05.617Z,-15.92
2018-05-08T07:05:06.197Z,-15.92
2018-05-08T07:06:06.777Z,-15.92
2018-05-08T07:07:07.355Z,-15.92
2018-05-08T07:08:07.934Z,-15.92
2018-05-08T07:09:08.579Z,-15.92
2018-05-08T07:10:09.093Z,-15.92
2018-05-08T07:11:09.673Z,-15.92
2018-05-08T07:12:10.253Z,-15.92
2018-05-08T07:13:10.838Z,-15.92
2018-05-08T07:14:11.414Z,-15.92
2018-05-08T07:15:11.993Z,-15.92
2018-05-08T07:16:12.760Z,-15.92
2018-05-08T07:17:13.165Z,-15.92
2018-05-08T07:18:13.733Z,-15.92
2018-05-08T07:19:14.313Z,-15.92
2018-05-08T07:20:14.896Z,-15.92
2018-05-08T07:21:15.484Z,-15.92
2018-05-08T07:22:16.075Z,-15.92
2018-05-08T07:23:16.655Z,-15.92
2018-05-08T07:24:17.234Z,-15.92
2018-05-08T07:25:17.826Z,-15.92
2018-05-08T07:26:18.404Z,-15.92
2018-05-08T07:27:18.986Z,-15.92
2018-05-08T07:28:19.565Z,-15.92
2018-05-08T07:29:20.166Z,-15.92
2018-05-08T07:30:20.747Z,-15.92
2018-05-08T07:31:21.326Z,-15.92
2018-05-08T07:32:21.906Z,-15.92
2018-05-08T07:33:22.485Z,-15.92
2018-05-08T07:34:23.065Z,-15.92
2018-05-08T07:35:23.657Z,-15.92
2018-05-08T07:36:24.237Z,-15.92
2018-05-08T07:37:24.826Z,-15.92
2018-05-08T07:38:25.406Z,-15.92
2018-05-08T07:39:25.987Z,-15.92
2018-05-08T07:40:26.569Z,-15.92
2018-05-08T07:41:27.164Z,-15.92
2018-05-08T07:42:27.745Z,-15.92
2018-05-08T07:43:28.325Z,-15.92
2018-05-08T07:44:28.904Z,-15.92
2018-05-08T07:45:29.523Z,-15.92
2018-05-08T07:46:30.075Z,-15.92
2018-05-08T07:47:30.664Z,-15.92
2018-05-08T07:48:31.260Z,-15.92
2018-05-08T07:49:31.835Z,-15.92
2018-05-08T07:50:32.416Z,-15.92
2018-05-08T07:51:32.998Z,-15.92
2018-05-08T07:52:33.578Z,-15.92
2018-05-08T07:53:34.162Z,-15.92
2018-05-08T07:54:34.740Z,-15.92
2018-05-08T07:55:35.322Z,-15.92
2018-05-08T07:56:35.904Z,-15.92
2018-05-08T07:57:36.548Z,-15.92
2018-05-08T07:58:37.064Z,-15.92
2018-05-08T07:59:37.656Z,-15.92
2018-05-08T08:00:38.236Z,-15.92
2018-05-08T08:01:38.817Z,-15.92
2018-05-08T08:02:39.400Z,-15.92
2018-05-08T08:03:39.982Z,-15.92
2018-05-08T08:04:40.561Z,-15.92
2018-05-08T08:05:41.144Z,-15.92
2018-05-08T08:06:41.735Z,-15.92
2018-05-08T08:07:42.309Z,-15.92
2018-05-08T08:08:42.889Z,-15.92
2018-05-08T08:09:43.473Z,-15.92
2018-05-08T08:10:44.055Z,-15.92
2018-05-08T08:11:44.634Z,-15.92
2018-05-08T08:12:45.215Z,-15.92
2018-05-08T08:13:45.798Z,-15.92
2018-05-08T08:14:46.379Z,-15.92
2018-05-08T08:15:46.959Z,-15.92
2018-05-08T08:16:47.543Z,-15.92
2018-05-08T08:17:48.123Z,-15.92
2018-05-08T08:18:48.704Z,-15.92
2018-05-08T08:19:49.285Z,-15.92
2018-05-08T08:20:49.866Z,-15.92
2018-05-08T08:21:50.456Z,-15.92
2018-05-08T08:22:51.078Z,-15.92
2018-05-08T08:23:51.726Z,-15.92
2018-05-08T08:24:52.205Z,-15.92
2018-05-08T08:25:52.794Z,-15.92
2018-05-08T08:26:53.374Z,-15.92
2018-05-08T08:27:53.957Z,-15.92
2018-05-08T08:28:54.536Z,-15.92
2018-05-08T08:29:55.130Z,-15.92
2018-05-08T08:30:55.711Z,-15.92
2018-05-08T08:31:56.293Z,-15.92
2018-05-08T08:32:56.877Z,-15.92
2018-05-08T08:33:57.460Z,-15.92
2018-05-08T08:34:58.040Z,-15.92
2018-05-08T08:35:58.621Z,-15.92
2018-05-08T08:36:59.204Z,-15.92
2018-05-08T08:37:59.786Z,-15.92
2018-05-08T08:39:00.373Z,-15.92
2018-05-08T08:40:00.953Z,-15.92
2018-05-08T08:41:01.548Z,-15.92
2018-05-08T08:42:02.126Z,-15.92
2018-05-08T08:43:02.707Z,-15.92
2018-05-08T08:44:03.351Z,-15.92
2018-05-08T08:45:03.886Z,-15.92
2018-05-08T08:46:04.480Z,-15.92
2018-05-08T08:47:05.057Z,-15.92
2018-05-08T08:48:05.650Z,-15.92
2018-05-08T08:49:06.248Z,-15.92
2018-05-08T08:50:06.826Z,-15.92
2018-05-08T08:51:07.407Z,-15.92
2018-05-08T08:52:07.994Z,-15.92
2018-05-08T08:53:08.573Z,-15.92
2018-05-08T08:54:09.156Z,-15.92
2018-05-08T08:55:09.738Z,-15.92
2018-05-08T08:56:10.375Z,-15.92
2018-05-08T08:57:10.914Z,-15.92
2018-05-08T08:58:11.499Z,-15.92
2018-05-08T08:59:12.080Z,-15.92
2018-05-08T09:00:12.662Z,-15.92
2018-05-08T09:01:13.246Z,-15.92
2018-05-08T09:02:13.827Z,-15.92
2018-05-08T09:03:14.411Z,-15.92
2018-05-08T09:04:14.989Z,-15.92
2018-05-08T09:05:15.572Z,-15.92
2018-05-08T09:06:16.164Z,-15.92
2018-05-08T09:07:16.755Z,-15.92
2018-05-08T09:08:17.329Z,-15.92
2018-05-08T09:09:17.913Z,-15.92
2018-05-08T09:10:18.506Z,-15.92
2018-05-08T09:11:19.100Z,-15.92
2018-05-08T09:12:19.669Z,-15.92
2018-05-08T09:13:20.256Z,-15.92
2018-05-08T09:14:20.848Z,-15.92
2018-05-08T09:15:21.440Z,-15.92
2018-05-08T09:16:22.023Z,-15.92
2018-05-08T09:17:22.606Z,-15.92
2018-05-08T09:18:23.187Z,-15.92
2018-05-08T09:19:23.769Z,-15.92
2018-05-08T09:20:24.354Z,-15.92
2018-05-08T09:21:24.936Z,-15.92
2018-05-08T09:22:25.517Z,-15.92
2018-05-08T09:23:26.103Z,-15.92
2018-05-08T09:24:26.682Z,-15.92
2018-05-08T09:25:27.271Z,-15.92
2018-05-08T09:26:27.857Z,-15.92
2018-05-08T09:27:28.518Z,-15.92
2018-05-08T09:28:29.020Z,-15.92
2018-05-08T09:29:29.603Z,-15.92
2018-05-08T09:30:30.184Z,-15.92
2018-05-08T09:31:30.769Z,-15.92
2018-05-08T09:32:31.350Z,-15.92
2018-05-08T09:33:31.932Z,-15.92
2018-05-08T09:34:32.514Z,-15.92
2018-05-08T09:35:33.109Z,-15.92
2018-05-08T09:36:33.690Z,-15.92
2018-05-08T09:37:34.284Z,-15.92
2018-05-08T09:38:34.867Z,-15.92
2018-05-08T09:39:35.462Z,-15.92
2018-05-08T09:40:36.044Z,-15.92
2018-05-08T09:41:36.628Z,-15.92
2018-05-08T09:42:37.212Z,-15.92
2018-05-08T09:43:37.791Z,-15.92
2018-05-08T09:44:38.374Z,-15.92
2018-05-08T09:45:38.958Z,-15.92
2018-05-08T09:46:39.543Z,-15.92
2018-05-08T09:47:40.123Z,-15.92
2018-05-08T09:48:40.711Z,-15.92
2018-05-08T09:49:41.302Z,-15.92
2018-05-08T09:50:41.887Z,-15.92
2018-05-08T09:51:42.466Z,-15.92
2018-05-08T09:52:43.050Z,-15.92
2018-05-08T09:53:43.646Z,-15.92
2018-05-08T09:54:44.227Z,-15.92
2018-05-08T09:55:44.810Z,-15.92
2018-05-08T09:56:45.395Z,-15.92
2018-05-08T09:57:45.979Z,-15.92
2018-05-08T09:58:46.572Z,-15.92
2018-05-08T09:59:47.157Z,-15.92
2018-05-08T10:00:47.737Z,-15.92
2018-05-08T10:01:48.322Z,-15.92
2018-05-08T10:02:48.916Z,-15.92
2018-05-08T10:03:49.512Z,-15.92
2018-05-08T10:04:50.096Z,-15.92
2018-05-08T10:05:50.687Z,-15.92
2018-05-08T10:06:51.268Z,-15.92
2018-05-08T10:07:51.856Z,-15.92
2018-05-08T10:08:52.437Z,-15.92
2018-05-08T10:09:53.019Z,-15.92
2018-05-08T10:10:53.603Z,-15.92
2018-05-08T10:11:54.187Z,-15.92
2018-05-08T10:12:54.769Z,-15.92
2018-05-08T10:13:55.353Z,-15.92
2018-05-08T10:14:55.935Z,-15.92
2018-05-08T10:15:56.530Z,-15.92
2018-05-08T10:16:57.123Z,-15.92
2018-05-08T10:17:57.706Z,-15.92
2018-05-08T10:18:58.288Z,-15.92
2018-05-08T10:19:58.873Z,-15.92
2018-05-08T10:20:59.454Z,-15.92
2018-05-08T10:22:00.039Z,-15.92
2018-05-08T10:23:00.621Z,-15.92
2018-05-08T10:24:01.216Z,-15.92
2018-05-08T10:25:01.798Z,-15.92
2018-05-08T10:26:02.383Z,-15.92
2018-05-08T10:27:02.966Z,-15.92
2018-05-08T10:28:03.555Z,-15.92
2018-05-08T10:29:04.145Z,-15.92
2018-05-08T10:30:04.728Z,-15.92
2018-05-08T10:31:05.312Z,-15.92
2018-05-08T10:32:05.896Z,-15.92
2018-05-08T10:33:06.523Z,-15.92
2018-05-08T10:34:07.068Z,-15.92
2018-05-08T10:35:07.663Z,-15.92
2018-05-08T10:36:08.246Z,-15.92
2018-05-08T10:37:08.835Z,-15.92
2018-05-08T10:38:09.413Z,-15.92
2018-05-08T10:39:09.996Z,-15.92
2018-05-08T10:40:10.580Z,-15.92
2018-05-08T10:41:11.165Z,-15.92
2018-05-08T10:42:11.748Z,-15.92
2018-05-08T10:43:12.330Z,-15.92
2018-05-08T10:44:12.916Z,-15.92
2018-05-08T10:45:13.501Z,-15.92
2018-05-08T10:46:14.080Z,-15.92
2018-05-08T10:47:14.662Z,-15.92
2018-05-08T10:48:15.247Z,-15.92
2018-05-08T10:49:15.831Z,-15.92
2018-05-08T10:50:16.413Z,-15.92
2018-05-08T10:51:16.997Z,-15.92
2018-05-08T10:52:17.583Z,-15.92
2018-05-08T10:53:18.166Z,-15.92
2018-05-08T10:54:18.751Z,-15.92
2018-05-08T10:55:19.334Z,-15.92
2018-05-08T10:56:19.930Z,-15.92
2018-05-08T10:57:20.525Z,-15.92
2018-05-08T10:58:21.109Z,-15.92
2018-05-08T10:59:21.693Z,-15.92
2018-05-08T11:00:22.281Z,-15.92
2018-05-08T11:01:22.861Z,-15.92
2018-05-08T11:02:23.467Z,-15.92
2018-05-08T11:03:24.029Z,-15.92
2018-05-08T11:04:24.622Z,-15.92
2018-05-08T11:05:25.218Z,-15.92
2018-05-08T11:06:25.815Z,-15.92
2018-05-08T11:07:26.395Z,-15.92
2018-05-08T11:08:26.978Z,-15.92
2018-05-08T11:09:27.564Z,-15.92
2018-05-08T11:10:28.147Z,-15.92
2018-05-08T11:11:28.730Z,-15.92
2018-05-08T11:12:29.374Z,-15.92
2018-05-08T11:13:29.913Z,-15.92
2018-05-08T11:14:30.504Z,-15.92
2018-05-08T11:15:31.091Z,-15.92
2018-05-08T11:16:31.675Z,-15.92
2018-05-08T11:17:32.272Z,-15.92
2018-05-08T11:18:32.857Z,-15.92
2018-05-08T11:19:33.437Z,-15.92
2018-05-08T11:20:34.021Z,-15.92
2018-05-08T11:21:34.615Z,-15.92
2018-05-08T11:22:35.199Z,-15.92
2018-05-08T11:23:35.790Z,-15.92
2018-05-08T11:24:36.367Z,-15.92
2018-05-08T11:25:36.951Z,-15.92
2018-05-08T11:26:37.645Z,-15.92
2018-05-08T11:27:38.132Z,-15.92
2018-05-08T11:28:38.723Z,-15.92
2018-05-08T11:29:39.307Z,-15.92
2018-05-08T11:30:39.891Z,-15.92
2018-05-08T11:31:40.474Z,-15.92
2018-05-08T11:32:41.091Z,-15.92
2018-05-08T11:33:41.643Z,-15.92
2018-05-08T11:34:42.227Z,-15.92
2018-05-08T11:35:42.810Z,-15.92
2018-05-08T11:36:43.393Z,-15.92
2018-05-08T11:37:43.978Z,-15.92
2018-05-08T11:38:44.560Z,-15.92
2018-05-08T11:39:45.145Z,-15.92
2018-05-08T11:40:45.732Z,-15.92
2018-05-08T11:41:46.325Z,-15.92
2018-05-08T11:42:46.908Z,-15.92
2018-05-08T11:43:47.494Z,-15.92
2018-05-08T11:44:48.099Z,-15.92
2018-05-08T11:45:48.688Z,-15.92
2018-05-08T11:46:49.268Z,-15.92
2018-05-08T11:47:49.851Z,-15.92
2018-05-08T11:48:50.437Z,-15.92
2018-05-08T11:49:51.021Z,-15.92
2018-05-08T11:50:51.607Z,-15.92
2018-05-08T11:51:52.195Z,-15.92
2018-05-08T11:52:52.773Z,-15.92
2018-05-08T11:53:53.359Z,-15.92
2018-05-08T11:54:53.945Z,-15.92
2018-05-08T11:55:54.525Z,-15.92
2018-05-08T11:56:55.110Z,-15.92
2018-05-08T11:57:55.693Z,-15.92
2018-05-08T11:58:56.280Z,-15.92
2018-05-08T11:59:56.874Z,-15.92
2018-05-08T12:00:57.473Z,-15.92
2018-05-08T12:01:58.047Z,-15.92
2018-05-08T12:02:58.631Z,-15.92
2018-05-08T12:03:59.216Z,-15.92
2018-05-08T12:04:59.800Z,-15.92
2018-05-08T12:06:00.386Z,-15.92
2018-05-08T12:07:00.967Z,-15.92
2018-05-08T12:08:01.553Z,-15.92
2018-05-08T12:09:02.136Z,-15.92
2018-05-08T12:10:02.722Z,-15.92
2018-05-08T12:11:03.304Z,-15.92
2018-05-08T12:12:03.900Z,-15.92
2018-05-08T12:13:04.489Z,-15.92
2018-05-08T12:14:05.073Z,-15.92
2018-05-08T12:15:05.667Z,-15.92
2018-05-08T12:16:06.250Z,-15.92
2018-05-08T12:17:06.834Z,-15.92
2018-05-08T12:18:07.422Z,-15.92
2018-05-08T12:19:08.002Z,-15.92
2018-05-08T12:20:08.587Z,-15.92
2018-05-08T12:21:09.171Z,-15.92
2018-05-08T12:22:09.756Z,-15.92
2018-05-08T12:23:10.356Z,-15.92
2018-05-08T12:24:10.935Z,-15.92
2018-05-08T12:25:11.524Z,-15.92
2018-05-08T12:26:12.115Z,-15.92
2018-05-08T12:27:12.700Z,-15.92
2018-05-08T12:28:13.283Z,-15.92
2018-05-08T12:29:13.871Z,-15.92
2018-05-08T12:30:14.454Z,-15.92
2018-05-08T12:31:15.044Z,-15.92
2018-05-08T12:32:15.622Z,-15.92
2018-05-08T12:33:16.208Z,-15.92
2018-05-08T12:34:16.794Z,-15.92
2018-05-08T12:35:17.379Z,-15.92
2018-05-08T12:36:18.060Z,-15.92
2018-05-08T12:37:18.552Z,-15.92
2018-05-08T12:38:19.137Z,-15.92
2018-05-08T12:39:19.722Z,-15.92
2018-05-08T12:40:20.489Z,-15.92
2018-05-08T12:41:20.894Z,-15.92
2018-05-08T12:42:21.476Z,-15.92
2018-05-08T12:43:22.061Z,-15.92
2018-05-08T12:44:22.650Z,-15.92
2018-05-08T12:45:23.243Z,-15.92
2018-05-08T12:46:23.826Z,-15.92
2018-05-08T12:47:24.411Z,-15.92
2018-05-08T12:48:24.995Z,-15.92
2018-05-08T12:49:25.585Z,-15.92